Time;durP1;ratioP1;P1;durP2;ratioP2;P2;SDS_P1;SDS_P2;PMS_P1;PMS_P2;Temp;Humidity;BMP_temperature;BMP_pressure;BME280_temperature;BME280_humidity;BME280_pressure;Samples;Min_cycle;Max_cycle;Signal;HPM_P1;HPM_P2
2021/11/02 00:01:27;;;;;;;5.60;2.20;;;;;;;9.97;71.15;98325.78;5115733;28;20096;-63
2021/11/02 00:04:03;;;;;;;4.18;2.17;;;;;;;9.95;71.19;98324.09;5080278;28;20043;-64
2021/11/02 00:06:35;;;;;;;6.18;2.58;;;;;;;9.93;70.93;98325.84;5080337;28;20100;-63
2021/11/02 00:09:14;;;;;;;5.32;2.42;;;;;;;9.93;70.77;98321.50;5079299;28;20447;-64
2021/11/02 00:11:49;;;;;;;4.47;2.60;;;;;;;9.90;71.03;98322.41;5080470;28;20118;-63
2021/11/02 00:14:25;;;;;;;3.85;3.00;;;;;;;9.90;70.96;98313.75;5115472;28;20065;-63
2021/11/02 00:17:24;;;;;;;5.20;2.35;;;;;;;9.88;71.24;98306.03;5131533;27;20024;-63
2021/11/02 00:19:47;;;;;;;6.72;2.42;;;;;;;9.86;70.87;98306.94;5114400;28;20421;-63
2021/11/02 00:22:18;;;;;;;4.60;2.25;;;;;;;9.85;70.93;98312.97;5115160;28;20039;-63
2021/11/02 00:27:27;;;;;;;3.33;2.13;;;;;;;9.81;70.86;98311.28;5097084;28;20066;-63
2021/11/02 00:29:59;;;;;;;6.10;2.22;;;;;;;9.80;71.25;98314.72;5114854;28;20058;-63
2021/11/02 00:32:38;;;;;;;4.60;2.78;;;;;;;9.78;70.99;98304.41;5096890;28;20074;-64
2021/11/02 00:35:12;;;;;;;3.40;2.05;;;;;;;9.75;70.87;98304.44;5079577;28;20031;-63
2021/11/02 00:37:43;;;;;;;8.50;2.53;;;;;;;9.72;71.11;98297.56;5080095;28;20060;-63
2021/11/02 00:40:19;;;;;;;4.63;2.03;;;;;;;9.72;71.05;98294.97;5096977;28;20043;-63
2021/11/02 00:42:54;;;;;;;3.90;2.33;;;;;;;9.70;70.96;98294.13;5114808;28;20119;-64
2021/11/02 00:45:35;;;;;;;4.15;2.05;;;;;;;9.70;71.09;98293.25;5095956;28;20050;-64
2021/11/02 00:48:08;;;;;;;4.68;2.33;;;;;;;9.68;70.98;98297.56;5096834;28;20028;-63
2021/11/02 00:50:44;;;;;;;3.27;2.17;;;;;;;9.69;70.76;98296.69;5096470;28;20036;-64
2021/11/02 00:53:18;;;;;;;3.03;2.13;;;;;;;9.68;70.85;98307.91;5114410;28;20043;-63
2021/11/02 00:55:52;;;;;;;3.28;2.00;;;;;;;9.68;71.18;98305.34;5096955;28;20505;-63
2021/11/02 00:58:25;;;;;;;4.80;2.63;;;;;;;9.64;70.97;98312.25;5096523;28;20537;-63
2021/11/02 01:00:53;;;;;;;9.73;2.25;;;;;;;9.65;71.13;98305.38;5079210;28;20058;-63
2021/11/02 01:03:27;;;;;;;3.42;2.22;;;;;;;9.66;70.86;98300.19;5079336;28;20036;-63
2021/11/02 01:05:58;;;;;;;4.47;2.08;;;;;;;9.64;70.99;98306.25;5114661;28;20141;-64
2021/11/02 01:08:32;;;;;;;3.58;2.13;;;;;;;9.63;71.04;98302.78;5079774;28;20035;-64
2021/11/02 01:11:05;;;;;;;3.67;2.15;;;;;;;9.64;71.19;98304.50;5114240;28;20432;-63
2021/11/02 01:13:39;;;;;;;5.22;2.15;;;;;;;9.63;71.00;98292.44;5095994;28;20109;-63
2021/11/02 01:16:22;;;;;;;5.25;2.42;;;;;;;9.62;70.80;98301.06;5114113;28;20035;-64
2021/11/02 01:18:57;;;;;;;6.45;2.78;;;;;;;9.62;70.84;98298.47;5096114;28;20039;-63
2021/11/02 01:21:31;;;;;;;4.65;2.60;;;;;;;9.58;70.83;98304.53;5079186;28;20114;-63
2021/11/02 01:24:05;;;;;;;3.95;2.17;;;;;;;9.57;70.81;98300.28;5079246;28;20043;-64
2021/11/02 01:26:39;;;;;;;;;;;;;;;9.52;70.85;98297.69;5096147;28;20061;-64
2021/11/02 01:29:12;;;;;;;5.00;2.83;;;;;;;9.49;71.12;98300.31;5114050;28;19915;-63
2021/11/02 01:31:48;;;;;;;2.75;2.08;;;;;;;9.49;71.11;98300.31;5096771;28;20035;-63
2021/11/02 01:34:22;;;;;;;4.90;2.00;;;;;;;9.48;70.97;98302.91;5079096;28;20032;-63
2021/11/02 01:36:58;;;;;;;6.00;2.38;;;;;;;9.47;71.11;98296.00;5114307;28;20062;-63
2021/11/02 01:39:30;;;;;;;4.15;2.28;;;;;;;9.46;70.88;98300.34;5079589;28;20092;-63
2021/11/02 01:42:01;;;;;;;7.85;2.45;;;;;;;9.45;71.10;98288.28;5079028;28;20043;-63
2021/11/02 01:44:35;;;;;;;3.97;2.80;;;;;;;9.45;70.94;98296.88;5078391;28;20553;-64
2021/11/02 01:47:06;;;;;;;4.47;2.40;;;;;;;9.47;71.07;98299.47;5113963;28;20032;-63
2021/11/02 01:49:37;;;;;;;5.88;1.85;;;;;;;9.45;71.18;98294.28;5078829;28;20402;-64
2021/11/02 01:53:53;;;;;;;8.80;2.72;;;;;;;9.43;70.96;98290.88;5131384;27;20555;-64
2021/11/02 01:56:32;;;;;;;4.72;2.40;;;;;;;9.40;70.91;98285.75;5096607;28;20471;-64
2021/11/02 01:59:12;;;;;;;7.00;2.28;;;;;;;9.40;71.05;98272.81;5131900;28;20034;-64
2021/11/02 02:02:01;;;;;;;7.65;2.47;;;;;;;9.40;71.08;98280.56;5096368;28;20394;-64
2021/11/02 02:05:04;;;;;;;2.50;1.90;;;;;;;9.40;70.86;98282.28;5096154;28;20118;-62
2021/11/02 02:07:52;;;;;;;4.13;2.17;;;;;;;9.39;71.02;98268.50;5131652;28;20050;-63
2021/11/02 02:10:52;;;;;;;5.13;2.03;;;;;;;9.40;70.93;98274.53;5131294;28;20088;-62
2021/11/02 02:13:59;;;;;;;4.60;2.30;;;;;;;9.39;70.94;98276.25;5113068;28;20039;-62
2021/11/02 02:16:46;;;;;;;3.22;2.20;;;;;;;9.35;70.93;98273.69;5130057;28;20049;-63
2021/11/02 02:19:39;;;;;;;3.92;2.08;;;;;;;9.36;71.15;98273.69;5095842;28;20050;-64
2021/11/02 02:22:40;;;;;;;4.53;1.88;;;;;;;9.37;70.81;98265.06;5096420;28;20035;-64
2021/11/02 02:25:21;;;;;;;5.75;2.63;;;;;;;9.37;70.81;98274.53;5131764;28;20039;-63
2021/11/02 02:30:19;;;;;;;4.72;2.03;;;;;;;9.37;70.82;98267.66;5131797;27;20136;-63
2021/11/02 02:32:54;;;;;;;4.47;3.00;;;;;;;9.37;71.14;98261.59;5096765;28;20467;-63
2021/11/02 02:35:27;;;;;;;6.28;2.40;;;;;;;9.35;70.96;98268.50;5096351;28;20041;-62
2021/11/02 02:38:05;;;;;;;3.47;2.47;;;;;;;9.34;71.05;98259.06;5113828;28;20470;-62
2021/11/02 02:40:40;;;;;;;4.20;2.22;;;;;;;9.33;70.96;98260.78;5113495;28;20042;-62
2021/11/02 02:43:15;;;;;;;5.15;2.22;;;;;;;9.32;71.07;98258.22;5096716;28;20387;-62
2021/11/02 02:45:47;;;;;;;3.47;2.40;;;;;;;9.29;70.89;98259.09;5113359;28;20035;-62
2021/11/02 02:48:15;;;;;;;4.57;2.35;;;;;;;9.31;71.02;98259.09;5113284;28;20472;-62
2021/11/02 02:50:47;;;;;;;3.88;2.50;;;;;;;9.29;71.13;98261.66;5113430;28;20066;-63
2021/11/02 02:53:20;;;;;;;7.32;2.10;;;;;;;9.28;71.23;98260.81;5113394;28;20082;-63
2021/11/02 02:55:53;;;;;;;5.20;2.67;;;;;;;9.28;71.00;98262.53;5131421;28;20034;-62
2021/11/02 02:58:41;;;;;;;3.83;2.10;;;;;;;9.27;71.20;98253.94;5113115;28;20058;-62
2021/11/02 03:01:12;;;;;;;4.03;2.30;;;;;;;9.28;70.71;98252.19;5131735;28;20039;-62
2021/11/02 03:03:48;;;;;;;9.32;2.80;;;;;;;9.27;71.13;98253.06;5096162;28;20028;-64
2021/11/02 03:06:23;;;;;;;2.78;2.08;;;;;;;9.28;70.93;98254.78;5131393;28;20039;-63
2021/11/02 03:08:55;;;;;;;2.67;2.10;;;;;;;9.27;71.19;98253.94;5113092;28;20448;-64
2021/11/02 03:11:30;;;;;;;4.80;2.60;;;;;;;9.27;70.98;98255.66;5096029;28;20039;-64
2021/11/02 03:14:06;;;;;;;4.13;2.08;;;;;;;9.26;70.86;98253.97;5131204;28;20118;-64
2021/11/02 03:16:57;;;;;;;5.50;2.33;;;;;;;9.26;70.94;98248.78;5095510;28;20091;-64
2021/11/02 05:46:56;;;;;;;4.30;2.70;;;;;;;9.17;71.38;98238.50;5111632;27;20200;-62
2021/11/02 05:49:30;;;;;;;7.47;2.88;;;;;;;9.19;71.20;98234.19;5110030;28;20054;-62
2021/11/02 05:55:21;;;;;;;5.28;3.00;;;;;;;9.21;71.08;98233.28;5111475;28;20548;-62
2021/11/02 06:07:10;;;;;;;3.53;2.72;;;;;;;9.19;71.25;98240.19;5110703;28;20032;-64
2021/11/02 06:09:39;;;;;;;8.98;2.50;;;;;;;9.18;71.27;98237.63;5106559;28;20093;-62
2021/11/02 06:29:14;;;;;;;5.22;3.15;;;;;;;9.17;71.33;98236.78;5110118;28;20048;-64
2021/11/02 06:31:42;;;;;;;7.90;3.35;;;;;;;9.14;71.77;98242.81;5110500;28;20058;-63
2021/11/02 06:34:24;;;;;;;5.35;2.67;;;;;;;9.14;71.63;98237.66;5109205;28;20526;-63
2021/11/02 06:53:38;;;;;;;3.70;2.47;;;;;;;9.18;71.43;98237.63;5110289;28;20028;-63
2021/11/02 06:59:34;;;;;;;3.80;2.75;;;;;;;9.14;71.55;98249.72;5096976;28;20028;-63
2021/11/02 07:19:29;;;;;;;7.20;3.70;;;;;;;9.14;71.55;98249.72;5095019;28;20042;-64
2021/11/02 07:22:25;;;;;;;4.95;3.03;;;;;;;9.16;71.74;98263.50;5096271;28;20031;-64
2021/11/02 07:27:48;;;;;;;;;;;;;;;9.16;71.59;98260.91;5094568;28;20064;-64
2021/11/02 08:49:58;;;;;;;5.22;2.50;;;;;;;9.34;72.14;98275.44;5094850;28;20036;-63
2021/11/02 08:52:29;;;;;;;4.95;3.08;;;;;;;9.36;72.15;98284.03;5094478;28;20028;-63
2021/11/02 08:54:56;;;;;;;4.85;2.50;;;;;;;9.38;72.33;98271.97;5094597;28;20035;-64
2021/11/02 08:57:23;;;;;;;4.55;2.60;;;;;;;9.40;72.29;98277.09;5092638;28;20127;-63
2021/11/02 08:59:53;;;;;;;4.72;2.58;;;;;;;9.42;72.33;98276.22;5093803;28;20043;-63
2021/11/02 09:02:42;;;;;;;3.00;1.92;;;;;;;9.45;72.16;98272.78;5092884;28;20047;-63
2021/11/02 09:05:10;;;;;;;3.60;1.92;;;;;;;9.46;72.13;98271.91;5093882;28;20070;-63
2021/11/02 09:07:37;;;;;;;4.13;2.33;;;;;;;9.48;72.32;98272.75;5075717;28;20043;-63
2021/11/02 09:10:15;;;;;;;3.55;2.42;;;;;;;9.49;72.28;98271.88;5075850;28;20043;-63
2021/11/02 09:12:43;;;;;;;4.70;2.38;;;;;;;9.50;72.31;98277.91;5093940;28;20128;-64
2021/11/02 09:15:10;;;;;;;4.57;2.17;;;;;;;9.50;72.49;98283.91;5075955;28;20050;-64
2021/11/02 09:17:43;;;;;;;3.03;2.65;;;;;;;9.50;72.41;98281.31;5076204;28;20063;-64
2021/11/02 09:20:09;;;;;;;3.67;1.88;;;;;;;9.50;72.18;98288.25;5093433;28;20459;-64
2021/11/02 09:22:35;;;;;;;4.53;2.17;;;;;;;9.51;72.39;98289.97;5075672;28;20134;-64
2021/11/02 09:25:01;;;;;;;3.85;2.67;;;;;;;9.50;72.23;98281.31;5093434;28;20138;-63
2021/11/02 09:27:28;;;;;;;3.30;1.73;;;;;;;9.50;72.20;98280.47;5093994;28;20040;-63
2021/11/02 09:29:59;;;;;;;4.32;2.20;;;;;;;9.52;72.31;98286.50;5075830;28;20526;-63
2021/11/02 09:32:25;;;;;;;5.50;2.47;;;;;;;9.53;72.21;98298.56;5093434;28;20047;-63
2021/11/02 09:34:53;;;;;;;3.13;2.63;;;;;;;9.52;72.45;98287.34;5093514;28;20089;-64
2021/11/02 09:37:29;;;;;;;4.28;2.17;;;;;;;9.51;72.38;98295.97;5075654;28;20124;-64
2021/11/02 09:40:07;;;;;;;2.72;2.22;;;;;;;9.52;72.36;98283.91;5093350;28;20562;-64
2021/11/02 09:42:55;;;;;;;7.63;2.75;;;;;;;9.52;72.37;98283.91;5093988;28;20036;-63
2021/11/02 09:45:55;;;;;;;9.05;3.03;;;;;;;9.53;72.21;98288.22;5093062;28;20377;-64
2021/11/02 09:48:33;;;;;;;;;;;;;;;9.53;72.35;98283.06;5075685;28;20059;-64
2021/11/02 09:51:33;;;;;;;5.07;2.85;;;;;;;9.55;72.62;98281.31;5093518;28;19912;-63
2021/11/02 09:54:42;;;;;;;2.50;2.10;;;;;;;9.57;72.25;98283.00;5092491;28;20032;-63
2021/11/02 09:57:13;;;;;;;6.45;3.08;;;;;;;9.58;72.63;98281.25;5093866;28;20040;-63
2021/11/02 10:00:02;;;;;;;5.05;2.17;;;;;;;9.59;72.55;98277.81;5092023;28;20056;-63
2021/11/02 10:02:48;;;;;;;4.80;2.22;;;;;;;9.59;72.57;98285.56;5092414;28;20089;-63
2021/11/02 10:05:36;;;;;;;3.22;2.15;;;;;;;9.58;72.38;98281.25;5075502;28;20040;-64
2021/11/02 10:08:47;;;;;;;3.63;2.63;;;;;;;9.58;72.43;98284.72;5075076;28;20612;-64
2021/11/02 10:11:24;;;;;;;3.53;1.92;;;;;;;9.57;72.39;98293.34;5088605;28;20040;-64
2021/11/02 10:14:01;;;;;;;2.75;1.92;;;;;;;9.55;72.25;98287.34;5092062;28;20039;-63
2021/11/02 10:16:38;;;;;;;3.03;2.63;;;;;;;9.58;72.53;98289.91;5093510;28;20064;-63
2021/11/02 10:19:48;;;;;;;4.95;2.33;;;;;;;9.58;72.69;98287.31;5093263;28;20043;-63
2021/11/02 10:22:35;;;;;;;5.85;2.42;;;;;;;9.59;72.47;98288.16;5075809;28;20040;-63
2021/11/02 10:25:10;;;;;;;3.20;2.10;;;;;;;9.58;72.74;98276.09;5075022;28;20036;-63
2021/11/02 10:28:13;;;;;;;3.03;1.70;;;;;;;9.60;72.79;98282.13;5075257;28;20036;-63
2021/11/02 10:30:57;;;;;;;4.63;2.92;;;;;;;9.64;72.79;98278.63;5093142;28;20024;-63
2021/11/02 10:33:34;;;;;;;3.75;2.25;;;;;;;9.67;72.75;98276.03;5097170;28;20074;-63
2021/11/02 10:36:01;;;;;;;3.72;2.15;;;;;;;9.69;72.64;98278.59;5095744;28;20491;-63
2021/11/02 10:38:34;;;;;;;4.15;2.28;;;;;;;9.71;72.57;98267.38;5095588;28;20036;-63
2021/11/02 10:41:05;;;;;;;3.80;2.13;;;;;;;9.73;73.02;98273.38;5095594;28;20028;-63
2021/11/02 10:43:33;;;;;;;3.88;2.17;;;;;;;9.76;72.91;98264.75;5078262;28;20047;-63
2021/11/02 10:46:05;;;;;;;6.03;2.80;;;;;;;9.79;72.71;98263.84;5078090;28;20048;-63
2021/11/02 10:48:49;;;;;;;2.78;2.08;;;;;;;9.80;72.89;98255.22;5095632;28;20040;-63
2021/11/02 10:51:34;;;;;;;3.78;2.45;;;;;;;9.81;72.70;98262.97;5079212;28;20036;-63
2021/11/02 10:54:05;;;;;;;3.38;2.10;;;;;;;9.82;72.86;98259.50;5096240;28;20483;-63
2021/11/02 10:57:02;;;;;;;7.75;2.25;;;;;;;9.81;72.76;98268.13;5096561;28;20111;-64
2021/11/02 10:59:30;;;;;;;3.97;2.90;;;;;;;9.81;72.66;98265.53;5095842;28;20047;-63
2021/11/02 11:01:57;;;;;;;3.50;2.47;;;;;;;9.81;72.55;98267.28;5078274;28;20043;-63
2021/11/02 11:04:26;;;;;;;3.10;2.15;;;;;;;9.81;72.61;98260.38;5096598;28;20131;-63
2021/11/02 11:06:55;;;;;;;4.20;2.17;;;;;;;9.78;72.76;98262.13;5095088;28;20048;-63
2021/11/02 11:09:22;;;;;;;4.20;2.30;;;;;;;9.80;72.83;98273.34;5078018;28;20123;-64
2021/11/02 11:11:53;;;;;;;3.95;2.22;;;;;;;9.78;72.62;98267.31;5112003;28;20032;-64
2021/11/02 11:14:27;;;;;;;2.83;2.17;;;;;;;9.77;72.74;98260.41;5078483;28;20178;-63
2021/11/02 11:16:55;;;;;;;3.00;2.78;;;;;;;9.77;72.73;98263.88;5112170;28;20044;-64
2021/11/02 11:19:34;;;;;;;4.82;1.98;;;;;;;9.76;72.66;98267.34;5111799;28;20043;-64
2021/11/02 11:22:00;;;;;;;5.15;2.53;;;;;;;9.77;72.57;98263.88;5077848;28;20032;-64
2021/11/02 11:24:42;;;;;;;5.43;2.95;;;;;;;9.75;73.00;98268.22;5095551;28;20486;-63
2021/11/02 11:27:09;;;;;;;2.60;2.17;;;;;;;9.74;72.72;98262.16;5112275;28;20097;-63
2021/11/02 11:29:43;;;;;;;2.88;2.53;;;;;;;9.74;72.62;98267.34;5077590;28;20059;-63
2021/11/02 11:32:11;;;;;;;3.17;1.73;;;;;;;9.76;72.63;98267.34;5077865;28;20032;-63
2021/11/02 11:34:42;;;;;;;4.28;1.98;;;;;;;9.75;72.75;98263.88;5077424;28;20070;-64
2021/11/02 11:37:09;;;;;;;3.83;2.13;;;;;;;9.75;72.66;98263.88;5096259;28;20484;-64
2021/11/02 11:39:37;;;;;;;2.80;1.90;;;;;;;9.76;72.78;98259.56;5094478;28;20506;-64
2021/11/02 11:42:04;;;;;;;3.20;2.10;;;;;;;9.75;72.86;98255.28;5094272;28;20039;-63
2021/11/02 11:44:30;;;;;;;2.47;2.28;;;;;;;9.76;72.91;98259.56;5095302;28;20047;-64
2021/11/02 11:47:06;;;;;;;3.45;2.17;;;;;;;9.75;72.63;98257.84;5077606;28;20165;-63
2021/11/02 11:49:35;;;;;;;3.60;2.38;;;;;;;9.74;72.88;98263.91;5077158;28;20040;-63
2021/11/02 11:52:04;;;;;;;3.15;2.13;;;;;;;9.72;72.80;98263.94;5094197;28;20036;-63
2021/11/02 11:54:50;;;;;;;5.10;2.35;;;;;;;9.73;72.38;98263.03;5077322;28;20047;-63
2021/11/02 11:57:38;;;;;;;5.60;2.42;;;;;;;9.72;72.71;98261.34;5093761;28;20402;-63
2021/11/02 12:00:08;;;;;;;2.97;1.92;;;;;;;9.72;72.99;98260.47;5094335;28;20032;-63
2021/11/02 12:02:46;;;;;;;2.33;2.00;;;;;;;9.71;72.73;98262.22;5095218;28;20040;-63
2021/11/02 12:05:17;;;;;;;3.72;2.10;;;;;;;9.71;72.95;98259.63;5093957;28;20603;-64
2021/11/02 12:07:54;;;;;;;3.38;2.25;;;;;;;9.72;73.04;98265.63;5094108;28;20032;-64
2021/11/02 12:10:26;;;;;;;5.18;2.50;;;;;;;9.72;72.90;98263.94;5093964;28;20035;-62
2021/11/02 12:12:54;;;;;;;6.82;2.72;;;;;;;9.72;72.88;98266.50;5094013;28;20032;-64
2021/11/02 12:15:21;;;;;;;4.78;2.17;;;;;;;9.70;73.20;98263.09;5077139;28;20479;-64
2021/11/02 12:17:51;;;;;;;4.82;1.98;;;;;;;9.71;73.03;98266.50;5093616;28;20048;-64
2021/11/02 12:20:21;;;;;;;2.38;2.17;;;;;;;9.71;72.87;98263.94;5076718;28;20028;-63
2021/11/02 12:22:53;;;;;;;2.65;2.08;;;;;;;9.70;72.81;98268.25;5093327;28;20028;-64
2021/11/02 12:25:21;;;;;;;3.25;1.80;;;;;;;9.70;73.21;98267.38;5093608;28;20054;-64
2021/11/02 12:27:48;;;;;;;2.03;1.83;;;;;;;9.70;73.16;98272.56;5093498;28;20038;-63
2021/11/02 12:30:18;;;;;;;2.95;1.90;;;;;;;9.70;73.22;98272.56;5076677;28;20430;-63
2021/11/02 12:32:51;;;;;;;2.20;1.80;;;;;;;9.70;72.78;98277.72;5076745;28;20028;-64
2021/11/02 12:35:46;;;;;;;3.13;2.03;;;;;;;9.67;73.33;98273.44;5093447;28;20039;-64
2021/11/02 12:38:12;;;;;;;3.97;1.83;;;;;;;9.67;73.50;98275.16;5094055;28;20127;-63
2021/11/02 12:40:41;;;;;;;4.78;2.28;;;;;;;9.66;73.25;98273.44;5094159;28;20036;-63
2021/11/02 12:43:27;;;;;;;3.50;1.95;;;;;;;9.67;73.31;98288.09;5094177;28;20457;-64
2021/11/02 12:45:55;;;;;;;2.70;2.40;;;;;;;9.67;73.36;98288.09;5094390;28;20131;-63
2021/11/02 12:48:22;;;;;;;3.70;1.90;;;;;;;9.66;73.28;98283.78;5110222;28;20036;-64
2021/11/02 12:50:50;;;;;;;3.35;2.08;;;;;;;9.68;73.38;98280.34;5094225;28;20032;-63
2021/11/02 12:53:17;;;;;;;2.03;1.92;;;;;;;9.68;73.52;98282.06;5076065;28;20081;-64
2021/11/02 12:55:45;;;;;;;3.45;2.08;;;;;;;9.67;73.18;98273.44;5075614;28;20028;-64
2021/11/02 12:58:18;;;;;;;1.65;1.55;;;;;;;9.68;73.25;98280.34;5075857;28;20044;-63
2021/11/02 13:00:53;;;;;;;2.42;1.85;;;;;;;9.67;73.42;98278.63;5076262;28;20538;-63
2021/11/02 13:03:28;;;;;;;2.90;1.90;;;;;;;9.67;73.16;98277.75;5075935;28;20040;-63
2021/11/02 13:06:08;;;;;;;1.98;1.88;;;;;;;9.66;73.36;98276.91;5094107;28;20035;-64
2021/11/02 13:08:53;;;;;;;2.08;1.90;;;;;;;9.68;73.27;98277.75;5075796;28;20122;-63
2021/11/02 13:11:21;;;;;;;2.75;2.25;;;;;;;9.68;73.29;98272.56;5076615;28;20382;-63
2021/11/02 13:13:55;;;;;;;4.50;2.53;;;;;;;9.68;73.64;98274.28;5076357;28;20032;-63
2021/11/02 13:16:21;;;;;;;5.88;2.38;;;;;;;9.69;73.18;98274.28;5075954;28;20499;-63
2021/11/02 13:18:46;;;;;;;2.13;1.90;;;;;;;9.71;73.40;98269.09;5093888;28;20081;-63
2021/11/02 13:21:33;;;;;;;3.28;2.15;;;;;;;9.71;73.46;98272.56;5094158;28;20499;-63
2021/11/02 13:24:03;;;;;;;3.10;2.25;;;;;;;9.73;73.44;98283.72;5076321;28;20488;-64
2021/11/02 13:26:31;;;;;;;2.90;2.28;;;;;;;9.72;73.31;98292.38;5092798;28;20036;-63
2021/11/02 13:29:14;;;;;;;2.40;2.15;;;;;;;9.74;73.75;98282.84;5075703;28;20028;-64
2021/11/02 13:31:42;;;;;;;3.30;2.53;;;;;;;9.75;73.63;98281.97;5075606;28;20036;-63
2021/11/02 13:34:15;;;;;;;4.15;2.60;;;;;;;9.74;73.40;98285.44;5076118;28;20127;-63
2021/11/02 13:36:41;;;;;;;3.80;2.95;;;;;;;9.75;73.37;98281.97;5094029;28;20075;-63
2021/11/02 13:39:10;;;;;;;3.50;2.70;;;;;;;9.75;73.61;98281.97;5093679;28;20051;-63
2021/11/02 13:41:38;;;;;;;3.35;2.88;;;;;;;9.76;73.63;98285.44;5092854;28;20040;-63
2021/11/02 13:44:15;;;;;;;6.95;3.50;;;;;;;9.74;73.42;98285.44;5075152;28;20403;-62
2021/11/02 13:46:50;;;;;;;5.00;3.05;;;;;;;9.74;73.70;98290.63;5092072;28;20092;-63
2021/11/02 13:49:17;;;;;;;6.03;3.75;;;;;;;9.74;73.37;98294.94;5093842;28;20040;-63
2021/11/02 13:51:43;;;;;;;6.07;3.10;;;;;;;9.73;73.68;98288.91;5075417;28;20455;-63
2021/11/02 13:54:10;;;;;;;5.85;3.22;;;;;;;9.73;73.68;98294.06;5075392;28;20494;-64
2021/11/02 13:56:41;;;;;;;4.55;3.15;;;;;;;9.75;73.58;98301.84;5092262;28;20038;-63
2021/11/02 13:59:09;;;;;;;6.93;2.95;;;;;;;9.74;73.66;98300.97;5075347;28;20069;-63
2021/11/02 14:01:41;;;;;;;5.03;3.63;;;;;;;9.74;73.74;98308.72;5093410;28;20040;-63
2021/11/02 14:04:32;;;;;;;5.10;3.45;;;;;;;9.73;73.49;98308.75;5075092;28;20028;-64
2021/11/02 14:07:17;;;;;;;4.35;3.60;;;;;;;9.73;73.53;98313.94;5093837;28;20117;-63
2021/11/02 14:09:50;;;;;;;4.03;2.90;;;;;;;9.71;73.69;98320.84;5080028;28;20479;-64
2021/11/02 14:12:25;;;;;;;3.97;3.08;;;;;;;9.68;73.50;98311.38;5079387;28;20449;-63
2021/11/02 14:14:52;;;;;;;3.78;2.75;;;;;;;9.68;73.78;98310.50;5097315;28;20047;-63
2021/11/02 14:17:23;;;;;;;5.38;3.10;;;;;;;9.67;73.46;98317.41;5078995;28;20036;-63
2021/11/02 14:19:50;;;;;;;3.08;2.40;;;;;;;9.65;73.42;98318.31;5097309;28;20040;-63
2021/11/02 14:22:40;;;;;;;5.45;3.03;;;;;;;9.63;73.53;98323.47;5079020;28;20411;-63
2021/11/02 14:25:18;;;;;;;3.35;2.65;;;;;;;9.62;73.47;98315.75;5097120;28;20036;-63
2021/11/02 14:27:49;;;;;;;3.20;2.50;;;;;;;9.62;73.61;98321.75;5095983;28;20032;-63
2021/11/02 14:30:31;;;;;;;2.75;2.22;;;;;;;9.63;73.59;98327.81;5095975;28;20039;-64
2021/11/02 14:33:03;;;;;;;2.47;2.28;;;;;;;9.62;73.67;98331.25;5097316;28;20123;-63
2021/11/02 14:35:38;;;;;;;3.40;2.03;;;;;;;9.60;73.72;98328.66;5078672;28;20161;-63
2021/11/02 14:38:10;;;;;;;3.17;2.08;;;;;;;9.60;73.47;98334.72;5096759;28;20036;-63
2021/11/02 14:40:41;;;;;;;2.63;2.15;;;;;;;9.63;73.54;98338.16;5078763;28;20036;-63
2021/11/02 14:43:12;;;;;;;3.72;2.25;;;;;;;9.62;73.78;98332.09;5096219;28;20360;-63
2021/11/02 14:45:40;;;;;;;3.60;2.30;;;;;;;9.61;73.74;98338.16;5096814;28;20040;-63
2021/11/02 14:48:49;;;;;;;3.05;2.53;;;;;;;9.58;73.64;98330.41;5078638;28;20035;-63
2021/11/02 14:51:20;;;;;;;2.92;2.63;;;;;;;9.58;73.36;98341.63;5078288;28;20039;-63
2021/11/02 14:53:46;;;;;;;2.38;2.13;;;;;;;9.56;73.63;98343.38;5095499;28;20461;-63
2021/11/02 14:56:34;;;;;;;5.13;2.65;;;;;;;9.55;73.57;98336.47;5096469;28;20119;-63
2021/11/02 14:59:05;;;;;;;2.80;2.45;;;;;;;9.54;73.49;98339.94;5078483;28;20036;-63
2021/11/02 15:01:33;;;;;;;5.35;2.40;;;;;;;9.55;73.21;98340.81;5078180;28;20376;-63
2021/11/02 15:04:11;;;;;;;2.88;2.58;;;;;;;9.54;73.35;98334.75;5094967;28;20040;-63
2021/11/02 15:06:43;;;;;;;3.25;2.35;;;;;;;9.55;73.53;98317.53;5078550;28;20081;-63
2021/11/02 15:09:12;;;;;;;3.22;1.92;;;;;;;9.55;73.59;98317.53;5078445;28;20075;-63
2021/11/02 15:11:42;;;;;;;3.22;2.42;;;;;;;9.57;73.80;98328.72;5078105;28;20122;-63
2021/11/02 15:14:17;;;;;;;3.33;2.30;;;;;;;9.58;73.71;98322.66;5094821;28;20117;-63
2021/11/02 15:16:49;;;;;;;3.17;2.35;;;;;;;9.58;73.70;98320.94;5077912;28;20503;-63
2021/11/02 15:19:16;;;;;;;2.15;1.92;;;;;;;9.60;73.41;98326.09;5095080;28;20032;-63
2021/11/02 15:21:45;;;;;;;2.83;1.98;;;;;;;9.60;73.53;98328.66;5078212;28;20036;-64
2021/11/02 15:24:39;;;;;;;2.92;1.80;;;;;;;9.63;73.76;98323.47;5077740;28;20024;-63
2021/11/02 15:27:18;;;;;;;3.28;1.77;;;;;;;9.63;74.00;98323.47;5094012;28;20082;-63
2021/11/02 15:29:58;;;;;;;2.30;2.08;;;;;;;9.65;73.70;98326.06;5095028;28;20035;-63
2021/11/02 15:32:35;;;;;;;3.20;1.88;;;;;;;9.65;73.63;98324.34;5077931;28;20063;-63
2021/11/02 15:35:04;;;;;;;2.28;2.08;;;;;;;9.65;73.84;98323.50;5077683;28;20486;-63
2021/11/02 15:37:39;;;;;;;3.28;2.03;;;;;;;9.65;73.83;98326.91;5095571;28;20033;-63
2021/11/02 15:40:43;;;;;;;1.95;1.75;;;;;;;9.66;73.60;98332.94;5095919;28;20032;-63
2021/11/02 15:43:11;;;;;;;2.10;1.90;;;;;;;9.65;73.53;98328.66;5077801;28;20062;-63
2021/11/02 15:45:40;;;;;;;2.72;1.70;;;;;;;9.66;73.69;98330.34;5093794;28;20127;-63
2021/11/02 15:48:08;;;;;;;2.65;1.40;;;;;;;9.65;73.85;98324.34;5111313;28;20036;-63
2021/11/02 15:50:40;;;;;;;2.03;1.77;;;;;;;9.65;73.93;98337.25;5094477;28;20028;-63
2021/11/02 15:53:09;;;;;;;3.17;2.28;;;;;;;9.64;73.86;98332.97;5077632;28;20040;-63
2021/11/02 15:55:35;;;;;;;2.50;1.88;;;;;;;9.64;73.76;98330.38;5094075;28;20490;-63
2021/11/02 15:58:06;;;;;;;2.80;2.20;;;;;;;9.62;73.34;98339.03;5077096;28;20036;-63
2021/11/02 16:00:37;;;;;;;3.15;2.28;;;;;;;9.60;73.76;98336.44;5095854;28;20056;-63
2021/11/02 16:03:04;;;;;;;3.50;1.95;;;;;;;9.58;73.55;98335.56;5094286;28;20040;-63
2021/11/02 16:05:36;;;;;;;2.22;2.00;;;;;;;9.57;73.59;98328.72;5077045;28;20032;-63
2021/11/02 16:08:17;;;;;;;9.20;2.38;;;;;;;9.55;73.53;98335.63;5094176;28;20046;-63
2021/11/02 16:10:49;;;;;;;2.97;2.50;;;;;;;9.55;73.30;98331.28;5076668;28;20047;-63
2021/11/02 16:13:15;;;;;;;3.75;2.25;;;;;;;9.56;73.46;98338.19;5111411;28;20105;-64
2021/11/02 16:15:43;;;;;;;5.93;2.05;;;;;;;9.53;73.60;98327.88;5095024;28;20120;-63
2021/11/02 16:18:23;;;;;;;4.85;2.00;;;;;;;9.54;73.41;98323.56;5076876;28;20036;-63
2021/11/02 16:20:55;;;;;;;2.63;2.03;;;;;;;9.54;73.45;98331.31;5076788;28;20479;-63
2021/11/02 16:23:23;;;;;;;3.15;2.33;;;;;;;9.53;73.51;98330.44;5076486;28;20086;-63
2021/11/02 16:25:50;;;;;;;2.55;2.20;;;;;;;9.54;73.49;98328.75;5110493;28;20085;-63
2021/11/02 16:28:19;;;;;;;2.25;1.98;;;;;;;9.54;73.49;98328.75;5076535;28;20035;-63
2021/11/02 16:30:47;;;;;;;3.25;1.88;;;;;;;9.53;73.56;98325.28;5094320;28;20047;-63
2021/11/02 16:33:15;;;;;;;2.28;1.92;;;;;;;9.52;73.60;98331.31;5076783;28;20036;-63
2021/11/02 16:35:51;;;;;;;2.50;1.80;;;;;;;9.53;73.33;98333.03;5076235;28;20086;-64
2021/11/02 16:38:33;;;;;;;3.20;2.90;;;;;;;9.52;73.46;98336.47;5076925;28;20446;-63
2021/11/02 16:41:04;;;;;;;3.38;2.40;;;;;;;9.50;73.32;98347.72;5076777;28;20131;-63
2021/11/02 16:43:49;;;;;;;5.30;2.60;;;;;;;9.49;73.25;98353.75;5094259;28;20132;-63
2021/11/02 16:46:33;;;;;;;3.63;2.45;;;;;;;9.48;73.39;98357.22;5092865;28;20128;-63
2021/11/02 16:49:21;;;;;;;6.85;2.95;;;;;;;9.44;73.33;98364.13;5110032;28;20139;-63
2021/11/02 16:51:47;;;;;;;6.25;3.17;;;;;;;9.42;73.21;98356.38;5076606;28;20391;-63
2021/11/02 16:54:18;;;;;;;5.57;3.58;;;;;;;9.41;73.28;98357.28;5075885;28;20495;-63
2021/11/02 16:56:59;;;;;;;8.07;5.03;;;;;;;9.42;73.40;98361.53;5075787;28;20036;-63
2021/11/02 16:59:39;;;;;;;8.02;4.93;;;;;;;9.40;73.33;98368.47;5093012;28;20035;-63
2021/11/02 17:02:20;;;;;;;8.07;5.10;;;;;;;9.40;73.15;98368.47;5092850;28;20479;-63
2021/11/02 17:05:05;;;;;;;5.88;3.75;;;;;;;9.39;73.33;98378.81;5109996;28;20044;-63
2021/11/02 17:07:51;;;;;;;;;;;;;;;9.36;73.17;98378.81;5094444;28;20479;-63
2021/11/02 17:10:16;;;;;;;;;;;;;;;9.33;72.91;98381.44;5094852;28;20014;-63
2021/11/02 17:12:46;;;;;;;;;;;;;;;9.31;73.30;98380.59;5094394;28;19965;-63
2021/11/02 17:15:12;;;;;;;;;;;;;;;9.29;73.00;98389.22;5110157;28;20012;-63
2021/11/02 17:17:41;;;;;;;;;;;;;;;9.29;72.92;98386.63;5109848;28;19916;-63
2021/11/02 17:20:10;;;;;;;;;;;;;;;9.29;72.89;98390.94;5093321;28;19916;-63
2021/11/02 17:22:36;;;;;;;;;;;;;;;9.25;72.95;98394.41;5094754;28;19923;-63
2021/11/02 17:25:01;;;;;;;;;;;;;;;9.25;72.96;98397.00;5109440;28;19915;-63